Time;durP1;ratioP1;P1;durP2;ratioP2;P2;SDS_P1;SDS_P2;PMS_P1;PMS_P2;Temp;Humidity;BMP_temperature;BMP_pressure;BME280_temperature;BME280_humidity;BME280_pressure;Samples;Min_cycle;Max_cycle;Signal;HPM_P1;HPM_P2
2021/05/22 00:01:20;;;;;;;1.08;0.43;;;;;;;;;;5115272;28;20082;-64
2021/05/22 00:03:46;;;;;;;0.88;0.50;;;;;;;;;;5113816;28;20112;-63
2021/05/22 00:06:12;;;;;;;0.32;0.30;;;;;;;;;;5114858;28;20131;-63
2021/05/22 00:08:38;;;;;;;0.73;0.40;;;;;;;;;;5115532;28;20055;-63
2021/05/22 00:11:04;;;;;;;0.40;0.30;;;;;;;;;;5115260;28;20109;-64
2021/05/22 00:13:31;;;;;;;3.15;0.40;;;;;;;;;;5115160;28;20053;-64
2021/05/22 00:15:56;;;;;;;0.90;0.40;;;;;;;;;;5114991;28;20494;-64
2021/05/22 00:18:22;;;;;;;0.80;0.47;;;;;;;;;;5115272;28;20048;-64
2021/05/22 00:20:48;;;;;;;0.70;0.40;;;;;;;;;;5115065;28;20055;-64
2021/05/22 00:23:15;;;;;;;2.30;0.68;;;;;;;;;;5115479;28;20044;-64
2021/05/22 00:25:42;;;;;;;0.73;0.40;;;;;;;;;;5115024;28;20047;-64
2021/05/22 00:28:08;;;;;;;1.33;0.55;;;;;;;;;;5115112;28;20771;-65
2021/05/22 00:30:34;;;;;;;1.30;0.63;;;;;;;;;;5115422;28;20047;-65
2021/05/22 00:33:00;;;;;;;0.75;0.47;;;;;;;;;;5114953;28;20480;-65
2021/05/22 00:35:26;;;;;;;2.38;0.95;;;;;;;;;;5115207;28;20430;-65
2021/05/22 00:37:52;;;;;;;1.50;0.52;;;;;;;;;;5115006;28;20066;-65
2021/05/22 00:40:18;;;;;;;2.30;0.60;;;;;;;;;;5113479;28;20648;-65
2021/05/22 00:42:45;;;;;;;1.08;0.45;;;;;;;;;;5114774;28;20392;-65
2021/05/22 00:45:14;;;;;;;1.05;0.40;;;;;;;;;;5114434;28;20393;-65
2021/05/22 00:47:42;;;;;;;0.80;0.40;;;;;;;;;;5114875;28;20384;-66
2021/05/22 00:50:11;;;;;;;0.95;0.40;;;;;;;;;;5114355;28;20456;-66
2021/05/22 00:52:37;;;;;;;10.80;0.60;;;;;;;;;;5115020;28;20685;-66
2021/05/22 00:55:05;;;;;;;0.75;0.35;;;;;;;;;;5114333;28;20063;-65
2021/05/22 00:57:31;;;;;;;0.82;0.20;;;;;;;;;;5114652;28;20047;-65
2021/05/22 00:59:58;;;;;;;0.50;0.15;;;;;;;;;;5114384;28;20396;-65
2021/05/22 01:02:26;;;;;;;1.33;0.30;;;;;;;;;;5114041;28;20403;-66
2021/05/22 01:04:52;;;;;;;0.63;0.20;;;;;;;;;;5112374;28;20118;-65
2021/05/22 01:07:19;;;;;;;0.47;0.10;;;;;;;;;;5114116;28;20412;-65
2021/05/22 01:09:46;;;;;;;0.40;0.13;;;;;;;;;;5114250;28;20059;-65
2021/05/22 01:12:13;;;;;;;0.95;0.30;;;;;;;;;;5114167;28;20055;-65
2021/05/22 01:14:42;;;;;;;0.40;0.30;;;;;;;;;;5113285;28;20046;-65
2021/05/22 01:17:11;;;;;;;2.35;0.45;;;;;;;;;;5114212;28;20055;-65
2021/05/22 01:19:41;;;;;;;0.40;0.25;;;;;;;;;;5113407;28;20044;-65
2021/05/22 01:22:07;;;;;;;0.15;0.13;;;;;;;;;;5112969;28;20047;-65
2021/05/22 01:24:38;;;;;;;0.45;0.15;;;;;;;;;;5113677;28;20044;-66
2021/05/22 01:27:06;;;;;;;0.57;0.22;;;;;;;;;;5113608;28;20051;-65
2021/05/22 01:29:32;;;;;;;1.30;0.30;;;;;;;;;;5113121;28;20040;-66
2021/05/22 01:31:58;;;;;;;0.20;0.20;;;;;;;;;;5112806;28;20472;-65
2021/05/22 01:34:24;;;;;;;1.17;0.30;;;;;;;;;;5112605;28;20050;-66
2021/05/22 01:36:50;;;;;;;0.52;0.10;;;;;;;;;;5112624;28;20056;-66
2021/05/22 01:39:16;;;;;;;0.95;0.20;;;;;;;;;;5113047;28;20080;-66
2021/05/22 01:41:43;;;;;;;0.28;0.20;;;;;;;;;;5113775;28;20241;-66
2021/05/22 01:44:10;;;;;;;0.17;0.17;;;;;;;;;;5113430;28;20048;-65
2021/05/22 01:46:37;;;;;;;0.17;0.13;;;;;;;;;;5113477;28;20084;-66
2021/05/22 01:49:03;;;;;;;0.45;0.30;;;;;;;;;;5113421;28;20059;-66
2021/05/22 01:51:29;;;;;;;0.32;0.20;;;;;;;;;;5113646;28;20415;-66
2021/05/22 01:53:55;;;;;;;0.20;0.20;;;;;;;;;;5113787;27;20082;-66
2021/05/22 01:56:22;;;;;;;1.85;0.80;;;;;;;;;;5113002;28;20059;-66
2021/05/22 01:58:48;;;;;;;0.55;0.40;;;;;;;;;;5113237;28;20051;-66
2021/05/22 02:01:15;;;;;;;0.85;0.40;;;;;;;;;;5113187;28;20391;-66
2021/05/22 02:03:46;;;;;;;0.50;0.40;;;;;;;;;;5112230;28;20048;-65
2021/05/22 02:06:15;;;;;;;1.75;0.40;;;;;;;;;;5110316;28;20593;-66
2021/05/22 02:08:43;;;;;;;1.05;0.30;;;;;;;;;;5113157;28;20035;-66
2021/05/22 02:11:10;;;;;;;0.50;0.50;;;;;;;;;;5113113;28;20275;-66
2021/05/22 02:13:36;;;;;;;1.08;0.40;;;;;;;;;;5112715;28;20089;-66
2021/05/22 02:16:04;;;;;;;0.45;0.30;;;;;;;;;;5112777;28;20056;-66
2021/05/22 02:18:34;;;;;;;0.63;0.47;;;;;;;;;;5112828;28;20052;-66
2021/05/22 02:21:01;;;;;;;1.45;0.82;;;;;;;;;;5113057;28;20121;-66
2021/05/22 02:23:28;;;;;;;0.43;0.30;;;;;;;;;;5112766;28;20044;-67
2021/05/22 02:25:55;;;;;;;0.95;0.30;;;;;;;;;;5112529;28;20048;-66
2021/05/22 02:28:22;;;;;;;0.52;0.30;;;;;;;;;;5113072;28;20051;-66
2021/05/22 02:30:48;;;;;;;0.93;0.40;;;;;;;;;;5112728;28;20055;-66
2021/05/22 02:33:15;;;;;;;1.10;0.40;;;;;;;;;;5112828;28;20044;-66
2021/05/22 02:35:43;;;;;;;1.88;0.50;;;;;;;;;;5112378;28;20457;-66
2021/05/22 02:38:13;;;;;;;1.02;0.40;;;;;;;;;;5111743;28;20182;-66
2021/05/22 02:40:39;;;;;;;0.40;0.32;;;;;;;;;;5112479;28;20048;-66
2021/05/22 02:43:08;;;;;;;0.82;0.35;;;;;;;;;;5112759;28;20044;-66
2021/05/22 02:45:38;;;;;;;0.80;0.28;;;;;;;;;;5112332;28;20083;-66
2021/05/22 02:48:08;;;;;;;1.30;0.50;;;;;;;;;;5112529;28;20488;-66
2021/05/22 02:50:35;;;;;;;2.08;0.30;;;;;;;;;;5111878;28;20495;-66
2021/05/22 02:53:03;;;;;;;0.40;0.30;;;;;;;;;;5112300;28;20036;-65
2021/05/22 02:55:29;;;;;;;0.30;0.20;;;;;;;;;;5112143;28;20062;-66
2021/05/22 02:57:56;;;;;;;0.20;0.15;;;;;;;;;;5112404;28;20044;-65
2021/05/22 03:00:22;;;;;;;0.32;0.30;;;;;;;;;;5112177;28;20419;-66
2021/05/22 03:02:48;;;;;;;2.00;0.50;;;;;;;;;;5112532;28;20066;-66
2021/05/22 03:05:14;;;;;;;0.40;0.30;;;;;;;;;;5111586;28;20096;-66
2021/05/22 03:07:41;;;;;;;0.65;0.40;;;;;;;;;;5108835;28;20066;-66
2021/05/22 03:10:09;;;;;;;1.13;0.50;;;;;;;;;;5112356;28;20047;-66
2021/05/22 03:12:36;;;;;;;2.00;0.30;;;;;;;;;;5112480;28;20392;-66
2021/05/22 03:15:03;;;;;;;0.52;0.40;;;;;;;;;;5115766;28;20047;-66
2021/05/22 03:17:29;;;;;;;0.45;0.30;;;;;;;;;;5116566;28;20430;-66
2021/05/22 03:19:55;;;;;;;0.88;0.30;;;;;;;;;;5116405;28;20055;-66
2021/05/22 03:22:22;;;;;;;0.45;0.25;;;;;;;;;;5116011;28;20119;-66
2021/05/22 03:24:48;;;;;;;0.88;0.43;;;;;;;;;;5095880;28;20135;-66
2021/05/22 03:27:15;;;;;;;0.52;0.22;;;;;;;;;;5095935;28;20396;-66
2021/05/22 03:29:41;;;;;;;0.60;0.32;;;;;;;;;;5115051;28;20431;-66
2021/05/22 03:32:07;;;;;;;0.80;0.30;;;;;;;;;;5115930;28;20055;-66
2021/05/22 03:34:33;;;;;;;0.98;0.50;;;;;;;;;;5115826;28;20430;-66
2021/05/22 03:36:59;;;;;;;1.75;0.55;;;;;;;;;;5116107;28;20044;-66
2021/05/22 03:39:25;;;;;;;0.50;0.30;;;;;;;;;;5116163;28;20047;-66
2021/05/22 03:41:51;;;;;;;1.10;0.25;;;;;;;;;;5116182;28;20472;-66
2021/05/22 03:44:18;;;;;;;0.95;0.30;;;;;;;;;;5115588;28;20098;-66
2021/05/22 03:46:44;;;;;;;0.95;0.43;;;;;;;;;;5115179;28;20044;-67
2021/05/22 03:49:10;;;;;;;0.98;0.40;;;;;;;;;;5116067;28;20453;-66
2021/05/22 03:51:36;;;;;;;0.68;0.35;;;;;;;;;;5115753;28;20058;-66
2021/05/22 03:54:03;;;;;;;0.40;0.20;;;;;;;;;;5115606;28;20644;-67
2021/05/22 03:56:29;;;;;;;1.08;0.57;;;;;;;;;;5115274;28;20048;-67
2021/05/22 03:58:55;;;;;;;0.63;0.30;;;;;;;;;;5115460;28;20055;-67
2021/05/22 04:01:22;;;;;;;0.70;0.30;;;;;;;;;;5115376;28;20059;-66
2021/05/22 04:03:48;;;;;;;1.05;0.32;;;;;;;;;;5114304;28;20372;-67
2021/05/22 04:06:14;;;;;;;0.63;0.45;;;;;;;;;;5114931;28;20124;-66
2021/05/22 04:08:40;;;;;;;0.30;0.30;;;;;;;;;;5114161;28;20300;-67
2021/05/22 04:11:06;;;;;;;1.25;0.52;;;;;;;;;;5115551;28;20058;-67
2021/05/22 04:13:31;;;;;;;0.40;0.30;;;;;;;;;;5115299;28;20101;-67
2021/05/22 04:15:57;;;;;;;0.75;0.47;;;;;;;;;;5114916;28;20463;-67
2021/05/22 04:18:24;;;;;;;0.40;0.25;;;;;;;;;;5115203;28;20058;-67
2021/05/22 04:20:51;;;;;;;1.27;0.35;;;;;;;;;;5115641;28;20168;-67
2021/05/22 04:23:17;;;;;;;1.73;0.50;;;;;;;;;;5115465;28;20371;-67
2021/05/22 04:25:43;;;;;;;1.13;0.82;;;;;;;;;;5114220;28;20487;-66
2021/05/22 04:28:09;;;;;;;0.77;0.47;;;;;;;;;;5115282;28;20058;-66
2021/05/22 04:30:35;;;;;;;1.13;0.63;;;;;;;;;;5115032;28;20100;-67
2021/05/22 04:33:01;;;;;;;1.63;0.57;;;;;;;;;;5113562;28;20047;-66
2021/05/22 04:35:28;;;;;;;0.38;0.32;;;;;;;;;;5114362;28;20056;-66
2021/05/22 04:37:54;;;;;;;1.45;0.40;;;;;;;;;;5114871;28;20051;-67
2021/05/22 04:40:20;;;;;;;0.63;0.30;;;;;;;;;;5113921;28;20055;-67
2021/05/22 04:42:46;;;;;;;0.90;0.50;;;;;;;;;;5114875;28;20187;-66
2021/05/22 04:45:13;;;;;;;1.02;0.40;;;;;;;;;;5115225;28;20080;-66
2021/05/22 04:47:39;;;;;;;0.90;0.38;;;;;;;;;;5114862;28;20055;-66
2021/05/22 04:50:07;;;;;;;1.25;0.30;;;;;;;;;;5115212;28;20071;-67
2021/05/22 04:52:34;;;;;;;0.90;0.45;;;;;;;;;;5114466;28;20096;-67
2021/05/22 04:55:00;;;;;;;2.38;0.45;;;;;;;;;;5114900;28;20050;-66
2021/05/22 04:57:26;;;;;;;1.73;0.60;;;;;;;;;;5114137;28;20490;-66
2021/05/22 04:59:52;;;;;;;0.55;0.30;;;;;;;;;;5133400;27;20464;-67
2021/05/22 05:02:18;;;;;;;1.67;0.50;;;;;;;;;;5134881;27;20046;-67
2021/05/22 05:04:44;;;;;;;0.98;0.47;;;;;;;;;;5118024;27;20043;-66
2021/05/22 05:07:10;;;;;;;1.23;0.40;;;;;;;;;;5114081;28;20296;-66
2021/05/22 05:09:38;;;;;;;0.55;0.30;;;;;;;;;;5113271;28;20055;-67
2021/05/22 05:12:05;;;;;;;1.63;0.40;;;;;;;;;;5114516;28;20047;-67
2021/05/22 05:14:31;;;;;;;1.38;0.30;;;;;;;;;;5113907;28;20070;-67
2021/05/22 05:16:57;;;;;;;1.27;0.50;;;;;;;;;;5114154;28;20043;-67
2021/05/22 05:19:25;;;;;;;0.60;0.40;;;;;;;;;;5114170;28;20051;-67
2021/05/22 05:21:51;;;;;;;0.70;0.40;;;;;;;;;;5114130;28;20404;-67
2021/05/22 05:24:17;;;;;;;2.10;0.40;;;;;;;;;;5114309;28;20050;-67
2021/05/22 05:26:44;;;;;;;1.80;0.80;;;;;;;;;;5114055;28;20071;-67
2021/05/22 05:29:10;;;;;;;1.45;0.40;;;;;;;;;;5113624;28;20521;-67
2021/05/22 05:31:36;;;;;;;1.60;0.55;;;;;;;;;;5113048;28;20044;-67
2021/05/22 05:34:02;;;;;;;6.68;0.80;;;;;;;;;;5113861;28;20134;-67
2021/05/22 05:36:28;;;;;;;1.55;0.50;;;;;;;;;;5114133;28;20130;-67
2021/05/22 05:38:54;;;;;;;0.52;0.30;;;;;;;;;;5113537;28;20130;-67
2021/05/22 05:41:20;;;;;;;4.28;0.70;;;;;;;;;;5113853;28;20060;-67
2021/05/22 05:43:47;;;;;;;3.10;0.57;;;;;;;;;;5113592;28;20039;-67
2021/05/22 05:46:13;;;;;;;0.82;0.63;;;;;;;;;;5112418;28;20411;-66
2021/05/22 05:48:39;;;;;;;1.60;0.40;;;;;;;;;;5112676;28;20078;-66
2021/05/22 05:51:05;;;;;;;1.95;0.60;;;;;;;;;;5112409;28;20400;-67
2021/05/22 05:53:31;;;;;;;1.27;0.60;;;;;;;;;;5111036;28;20043;-67
2021/05/22 05:55:57;;;;;;;4.47;0.70;;;;;;;;;;5112121;28;20043;-67
2021/05/22 05:58:23;;;;;;;1.67;0.50;;;;;;;;;;5112162;28;20134;-66
2021/05/22 06:00:50;;;;;;;3.10;0.70;;;;;;;;;;5112245;28;20866;-66
2021/05/22 06:03:25;;;;;;;2.80;0.57;;;;;;;;;;5112404;28;20044;-67
2021/05/22 06:05:52;;;;;;;3.63;0.63;;;;;;;;;;5112428;28;20388;-67
2021/05/22 06:08:18;;;;;;;7.20;0.80;;;;;;;;;;5107486;28;20048;-67
2021/05/22 06:10:46;;;;;;;1.70;0.57;;;;;;;;;;5111845;28;20052;-67
2021/05/22 06:13:12;;;;;;;1.70;0.57;;;;;;;;;;5112472;28;20043;-67
2021/05/22 06:15:46;;;;;;;2.35;0.70;;;;;;;;;;5113555;28;20047;-67
2021/05/22 06:18:13;;;;;;;1.10;0.50;;;;;;;;;;5113170;28;20491;-67
2021/05/22 06:20:39;;;;;;;2.70;1.67;;;;;;;;;;5113190;28;20055;-67
2021/05/22 06:23:05;;;;;;;1.65;0.50;;;;;;;;;;5113066;28;20161;-67
2021/05/22 06:25:31;;;;;;;1.23;0.70;;;;;;;;;;5112756;28;20073;-67
2021/05/22 06:27:57;;;;;;;1.65;0.57;;;;;;;;;;5112550;28;20048;-66
2021/05/22 06:30:23;;;;;;;4.22;0.80;;;;;;;;;;5113254;28;20066;-68
2021/05/22 06:32:49;;;;;;;2.85;0.80;;;;;;;;;;5113136;28;20047;-66
2021/05/22 06:35:16;;;;;;;3.00;0.90;;;;;;;;;;5112938;28;20047;-66
2021/05/22 06:37:42;;;;;;;4.32;0.95;;;;;;;;;;5113065;28;20396;-66
2021/05/22 06:40:11;;;;;;;5.18;0.85;;;;;;;;;;5112955;28;20051;-66
2021/05/22 06:42:37;;;;;;;2.97;0.80;;;;;;;;;;5111666;28;20480;-65
2021/05/22 06:45:07;;;;;;;3.33;0.90;;;;;;;;;;5112442;28;20046;-66
2021/05/22 06:47:33;;;;;;;3.40;0.95;;;;;;;;;;5112294;28;20051;-66
2021/05/22 06:49:59;;;;;;;1.45;0.68;;;;;;;;;;5112717;28;20082;-66
2021/05/22 06:52:26;;;;;;;4.57;0.93;;;;;;;;;;5112471;28;20498;-66
2021/05/22 06:54:52;;;;;;;2.03;1.00;;;;;;;;;;5112083;28;20048;-66
2021/05/22 06:57:18;;;;;;;4.80;1.10;;;;;;;;;;5111497;28;20043;-67
2021/05/22 06:59:45;;;;;;;3.85;0.82;;;;;;;;;;5111082;28;20058;-66
2021/05/22 07:02:11;;;;;;;4.95;1.40;;;;;;;;;;5111411;28;20056;-66
2021/05/22 07:04:37;;;;;;;2.72;0.65;;;;;;;;;;5110081;28;20054;-66
2021/05/22 07:07:05;;;;;;;4.90;1.00;;;;;;;;;;5107731;28;20680;-66
2021/05/22 07:09:33;;;;;;;4.05;0.90;;;;;;;;;;5100205;28;20050;-66
2021/05/22 07:11:59;;;;;;;4.55;1.08;;;;;;;;;;5111144;28;20054;-67
2021/05/22 07:14:26;;;;;;;2.65;0.88;;;;;;;;;;5112555;28;20040;-67
2021/05/22 07:16:54;;;;;;;3.42;0.90;;;;;;;;;;5112744;28;20048;-66
2021/05/22 07:19:20;;;;;;;5.93;1.48;;;;;;;;;;5112330;28;20139;-66
2021/05/22 07:21:46;;;;;;;3.33;0.93;;;;;;;;;;5112232;28;20059;-66
2021/05/22 07:24:12;;;;;;;5.53;1.35;;;;;;;;;;5112303;28;20057;-66
2021/05/22 07:26:39;;;;;;;3.72;1.23;;;;;;;;;;5112090;28;20774;-67
2021/05/22 07:29:05;;;;;;;5.75;0.90;;;;;;;;;;5112227;28;20449;-68
2021/05/22 07:31:32;;;;;;;5.97;1.20;;;;;;;;;;5111404;28;20058;-67
2021/05/22 07:33:58;;;;;;;5.60;1.10;;;;;;;;;;5112213;28;20036;-66
2021/05/22 07:36:24;;;;;;;4.30;0.88;;;;;;;;;;5111988;28;20052;-66
2021/05/22 07:38:50;;;;;;;3.63;1.00;;;;;;;;;;5112050;28;20059;-68
2021/05/22 07:41:16;;;;;;;3.35;0.93;;;;;;;;;;5112565;28;20059;-68
2021/05/22 07:43:43;;;;;;;7.22;1.40;;;;;;;;;;5112207;28;20361;-66
2021/05/22 07:46:09;;;;;;;5.13;1.10;;;;;;;;;;5111655;28;20059;-69
2021/05/22 07:48:35;;;;;;;6.00;1.35;;;;;;;;;;5091953;28;20525;-66
2021/05/22 07:51:01;;;;;;;3.83;0.80;;;;;;;;;;5098401;28;20040;-67
2021/05/22 07:53:27;;;;;;;4.32;1.25;;;;;;;;;;5111442;28;20075;-68
2021/05/22 07:55:54;;;;;;;4.25;1.13;;;;;;;;;;5112383;28;20467;-67
2021/05/22 07:58:21;;;;;;;4.13;0.80;;;;;;;;;;5110952;28;20422;-67
2021/05/22 08:00:48;;;;;;;3.03;0.82;;;;;;;;;;5113848;28;20043;-68
2021/05/22 08:03:14;;;;;;;1.85;0.95;;;;;;;;;;5114431;28;20495;-67
2021/05/22 08:05:40;;;;;;;4.38;0.82;;;;;;;;;;5115923;28;20048;-68
2021/05/22 08:08:06;;;;;;;6.78;1.10;;;;;;;;;;5115960;28;20449;-67
2021/05/22 08:10:32;;;;;;;3.42;0.82;;;;;;;;;;5115225;28;20047;-66
2021/05/22 08:12:59;;;;;;;7.10;1.15;;;;;;;;;;5114787;28;20482;-67
2021/05/22 08:15:26;;;;;;;5.13;0.98;;;;;;;;;;5115783;27;20047;-68
2021/05/22 08:17:53;;;;;;;2.20;0.60;;;;;;;;;;5115647;28;20541;-68
2021/05/22 08:20:19;;;;;;;2.00;1.00;;;;;;;;;;5115599;28;20059;-67
2021/05/22 08:22:46;;;;;;;6.03;1.30;;;;;;;;;;5115587;28;20055;-68
2021/05/22 08:25:13;;;;;;;7.15;1.10;;;;;;;;;;5115252;28;20044;-68
2021/05/22 08:27:41;;;;;;;7.90;1.42;;;;;;;;;;5115317;28;20096;-66
2021/05/22 08:30:08;;;;;;;3.08;1.00;;;;;;;;;;5115498;28;20047;-65
2021/05/22 08:32:34;;;;;;;2.83;0.98;;;;;;;;;;5115331;28;20048;-66
2021/05/22 08:35:01;;;;;;;8.23;1.58;;;;;;;;;;5115279;28;20044;-66
2021/05/22 08:37:27;;;;;;;3.88;1.25;;;;;;;;;;5114758;28;20468;-66
2021/05/22 08:39:53;;;;;;;3.47;0.80;;;;;;;;;;5114488;28;20054;-66
2021/05/22 08:42:21;;;;;;;4.10;0.80;;;;;;;;;;5115082;28;20484;-67
2021/05/22 08:44:48;;;;;;;6.78;1.30;;;;;;;;;;5114250;28;20047;-66
2021/05/22 08:47:14;;;;;;;6.50;1.45;;;;;;;;;;5115094;28;20548;-66
2021/05/22 08:49:43;;;;;;;3.58;1.20;;;;;;;;;;5114929;28;20048;-67
2021/05/22 08:52:12;;;;;;;3.08;0.93;;;;;;;;;;5114959;28;20043;-67
2021/05/22 08:54:38;;;;;;;5.10;1.42;;;;;;;;;;5115067;28;20075;-67
2021/05/22 08:57:06;;;;;;;3.95;1.10;;;;;;;;;;5114656;27;20052;-67
2021/05/22 08:59:33;;;;;;;8.23;2.53;;;;;;;;;;5114730;28;20054;-67
2021/05/22 09:01:59;;;;;;;2.88;0.80;;;;;;;;;;5114987;28;20047;-67
2021/05/22 09:04:25;;;;;;;6.00;1.42;;;;;;;;;;5114809;28;20050;-66
2021/05/22 09:07:02;;;;;;;5.22;1.40;;;;;;;;;;5114652;28;20086;-66
2021/05/22 09:09:39;;;;;;;5.53;1.05;;;;;;;;;;5114563;28;20048;-66
2021/05/22 09:12:06;;;;;;;4.10;0.77;;;;;;;;;;5109528;28;20067;-66
2021/05/22 09:14:44;;;;;;;1.90;0.70;;;;;;;;;;5109402;28;20043;-66
2021/05/22 09:17:12;;;;;;;5.30;1.77;;;;;;;;;;5113944;28;20078;-66
2021/05/22 09:19:38;;;;;;;1.95;0.77;;;;;;;;;;5114065;28;20073;-66
2021/05/22 09:22:19;;;;;;;6.43;0.90;;;;;;;;;;5114637;28;20052;-66
2021/05/22 09:24:59;;;;;;;2.78;0.90;;;;;;;;;;5113820;28;20043;-66
2021/05/22 09:27:25;;;;;;;2.67;1.17;;;;;;;;;;5093886;28;20377;-66
2021/05/22 09:29:51;;;;;;;4.63;1.00;;;;;;;;;;5094019;28;20101;-66
2021/05/22 09:32:17;;;;;;;4.82;1.10;;;;;;;;;;5112433;28;20146;-66
2021/05/22 09:34:43;;;;;;;3.83;1.10;;;;;;;;;;5113827;28;20048;-66
2021/05/22 09:37:13;;;;;;;3.80;0.80;;;;;;;;;;5113902;28;20043;-67
2021/05/22 09:39:46;;;;;;;5.82;1.30;;;;;;;;;;5113467;28;20059;-66
2021/05/22 09:42:13;;;;;;;6.00;0.80;;;;;;;;;;5113867;28;20149;-65
2021/05/22 09:44:40;;;;;;;3.90;1.10;;;;;;;;;;5112804;28;20402;-66
2021/05/22 09:47:07;;;;;;;5.18;1.17;;;;;;;;;;5113781;28;20590;-66
2021/05/22 09:49:35;;;;;;;4.32;0.88;;;;;;;;;;5113663;28;20043;-65
2021/05/22 09:52:02;;;;;;;5.85;1.10;;;;;;;;;;5112099;28;20076;-65
2021/05/22 09:54:45;;;;;;;3.85;0.98;;;;;;;;;;5112411;28;20047;-66
2021/05/22 09:57:15;;;;;;;3.42;1.05;;;;;;;;;;5093264;28;20476;-66
2021/05/22 09:59:41;;;;;;;2.80;0.85;;;;;;;;;;5093135;28;20052;-65
2021/05/22 10:02:07;;;;;;;2.50;0.60;;;;;;;;;;5112812;28;20088;-66
2021/05/22 10:04:33;;;;;;;4.93;0.98;;;;;;;;;;5112748;27;20040;-66
2021/05/22 10:06:59;;;;;;;3.47;0.85;;;;;;;;;;5113479;28;20047;-65
2021/05/22 10:09:26;;;;;;;4.90;1.20;;;;;;;;;;5113082;28;20139;-65
2021/05/22 10:12:07;;;;;;;5.97;1.00;;;;;;;;;;5112237;28;20442;-66
2021/05/22 10:14:35;;;;;;;3.95;1.00;;;;;;;;;;5110477;28;20046;-64
2021/05/22 10:17:03;;;;;;;3.55;0.90;;;;;;;;;;5112575;28;20059;-66
2021/05/22 10:19:30;;;;;;;7.60;1.20;;;;;;;;;;5113141;28;20051;-66
2021/05/22 10:21:57;;;;;;;10.60;1.30;;;;;;;;;;5113012;28;20054;-65
2021/05/22 10:24:24;;;;;;;3.65;0.80;;;;;;;;;;5112291;28;20047;-66
2021/05/22 10:26:51;;;;;;;3.95;0.90;;;;;;;;;;5112301;28;20116;-65
2021/05/22 10:29:17;;;;;;;7.10;1.02;;;;;;;;;;5112764;28;20048;-66
2021/05/22 10:31:44;;;;;;;4.68;1.50;;;;;;;;;;5112663;28;20142;-66
2021/05/22 10:34:12;;;;;;;6.55;1.35;;;;;;;;;;5113005;28;20043;-65
2021/05/22 10:36:47;;;;;;;6.88;1.20;;;;;;;;;;5112346;28;20054;-65
2021/05/22 10:39:41;;;;;;;6.45;1.70;;;;;;;;;;5112501;28;20488;-65
2021/05/22 10:42:46;;;;;;;2.65;0.82;;;;;;;;;;5064313;28;20101;-65
2021/05/22 10:45:30;;;;;;;7.75;1.10;;;;;;;;;;5091271;28;20504;-66
2021/05/22 10:47:59;;;;;;;3.05;1.05;;;;;;;;;;5095905;28;20079;-65
2021/05/22 10:50:37;;;;;;;4.18;0.73;;;;;;;;;;5112616;28;20126;-65
2021/05/22 10:53:33;;;;;;;4.70;0.80;;;;;;;;;;5112523;28;20105;-65
2021/05/22 10:56:03;;;;;;;;;;;;;;;;;;5029329;28;20135;-66
2021/05/22 10:58:29;;;;;;;2.88;0.70;;;;;;;;;;5080961;28;19964;-66
2021/05/22 11:01:29;;;;;;;4.68;1.40;;;;;;;;;;5099722;28;20079;-66
2021/05/22 11:04:30;;;;;;;4.03;0.80;;;;;;;;;;5111492;28;20104;-66
2021/05/22 11:06:58;;;;;;;2.00;0.70;;;;;;;;;;5105065;28;20184;-66
2021/05/22 11:09:42;;;;;;;2.22;0.77;;;;;;;;;;5110923;28;20402;-66
2021/05/22 11:12:42;;;;;;;2.78;0.70;;;;;;;;;;5112072;28;20051;-66
2021/05/22 11:15:43;;;;;;;2.38;0.82;;;;;;;;;;5108835;28;20159;-66
2021/05/22 11:18:11;;;;;;;3.58;0.95;;;;;;;;;;5108415;28;20135;-66
2021/05/22 11:20:39;;;;;;;7.38;0.93;;;;;;;;;;5112553;28;20047;-67
2021/05/22 11:23:05;;;;;;;5.50;0.90;;;;;;;;;;5112583;28;20044;-67
2021/05/22 11:25:49;;;;;;;3.38;1.02;;;;;;;;;;5111915;28;20063;-66
2021/05/22 11:28:20;;;;;;;5.00;1.10;;;;;;;;;;5091971;28;20052;-68
2021/05/22 11:30:51;;;;;;;5.00;0.93;;;;;;;;;;5100067;28;20043;-66
2021/05/22 11:33:33;;;;;;;5.03;1.30;;;;;;;;;;5109588;28;20058;-66
2021/05/22 11:36:15;;;;;;;11.13;1.20;;;;;;;;;;5115794;28;20433;-66
2021/05/22 11:38:42;;;;;;;3.25;0.63;;;;;;;;;;5113512;28;20054;-67
2021/05/22 11:41:14;;;;;;;2.83;0.68;;;;;;;;;;5115550;28;20059;-67
2021/05/22 11:43:45;;;;;;;4.18;0.60;;;;;;;;;;5115699;28;20044;-68
2021/05/22 11:46:15;;;;;;;2.58;0.73;;;;;;;;;;5115975;28;20264;-66
2021/05/22 11:48:44;;;;;;;2.80;1.10;;;;;;;;;;5114471;28;20043;-66
2021/05/22 11:51:13;;;;;;;4.10;1.20;;;;;;;;;;5115203;28;20055;-66
2021/05/22 11:53:41;;;;;;;3.00;0.80;;;;;;;;;;5115680;28;20058;-66
2021/05/22 11:56:09;;;;;;;2.17;0.90;;;;;;;;;;5115583;28;20051;-68
2021/05/22 11:58:37;;;;;;;2.40;0.68;;;;;;;;;;5115229;28;20044;-66
2021/05/22 12:01:08;;;;;;;3.20;0.80;;;;;;;;;;5115394;28;20063;-66
2021/05/22 12:03:36;;;;;;;4.15;0.98;;;;;;;;;;5114829;28;20086;-66
2021/05/22 12:06:04;;;;;;;3.95;1.00;;;;;;;;;;5113895;28;20055;-66
2021/05/22 12:08:31;;;;;;;2.50;0.80;;;;;;;;;;5115291;28;20040;-66
2021/05/22 12:10:57;;;;;;;3.85;0.90;;;;;;;;;;5118496;27;20039;-66
2021/05/22 12:13:24;;;;;;;3.35;0.73;;;;;;;;;;5114349;27;20062;-66
2021/05/22 12:15:53;;;;;;;5.88;0.85;;;;;;;;;;5113041;27;20501;-67
2021/05/22 12:18:19;;;;;;;3.80;1.08;;;;;;;;;;5115020;27;20050;-66
2021/05/22 12:20:47;;;;;;;4.88;0.90;;;;;;;;;;5114445;28;20039;-67
2021/05/22 12:23:25;;;;;;;6.55;1.20;;;;;;;;;;5117415;27;20130;-67
2021/05/22 12:25:51;;;;;;;3.13;0.75;;;;;;;;;;5110550;27;20043;-66
2021/05/22 12:28:18;;;;;;;5.70;1.35;;;;;;;;;;5114853;27;20039;-66
2021/05/22 12:30:44;;;;;;;1.48;0.57;;;;;;;;;;5114814;27;20044;-66
2021/05/22 12:33:10;;;;;;;1.77;0.75;;;;;;;;;;5118348;27;20047;-66
2021/05/22 12:35:36;;;;;;;5.50;1.75;;;;;;;;;;5120320;27;20395;-66
2021/05/22 12:38:02;;;;;;;4.10;0.73;;;;;;;;;;5114376;28;20066;-67
2021/05/22 12:40:44;;;;;;;2.40;0.80;;;;;;;;;;5114199;27;20445;-64
2021/05/22 12:43:10;;;;;;;1.95;0.70;;;;;;;;;;5106572;27;20051;-65
2021/05/22 12:45:36;;;;;;;5.18;0.90;;;;;;;;;;5121194;27;20479;-65
2021/05/22 12:48:02;;;;;;;5.07;1.27;;;;;;;;;;5119534;27;20058;-65
2021/05/22 12:50:30;;;;;;;4.03;0.77;;;;;;;;;;5113565;27;20052;-66
2021/05/22 12:52:57;;;;;;;8.48;1.42;;;;;;;;;;5114572;27;20054;-66
2021/05/22 12:55:24;;;;;;;3.72;1.17;;;;;;;;;;5113151;28;20091;-66
2021/05/22 12:57:51;;;;;;;3.70;0.90;;;;;;;;;;5114290;28;20491;-65
2021/05/22 13:00:18;;;;;;;3.15;1.00;;;;;;;;;;5116511;27;20047;-66
2021/05/22 13:02:49;;;;;;;5.43;1.15;;;;;;;;;;5113763;28;20481;-66
2021/05/22 13:05:21;;;;;;;4.85;1.48;;;;;;;;;;5113467;28;20046;-66
2021/05/22 13:07:48;;;;;;;2.60;0.70;;;;;;;;;;5115914;27;20075;-67
2021/05/22 13:10:15;;;;;;;4.30;0.95;;;;;;;;;;5109620;28;20062;-66
2021/05/22 13:12:57;;;;;;;4.57;1.00;;;;;;;;;;5113792;27;20248;-65
2021/05/22 13:15:24;;;;;;;2.65;0.73;;;;;;;;;;5109098;28;20556;-66
2021/05/22 13:17:52;;;;;;;2.38;0.70;;;;;;;;;;5112742;28;20488;-65
2021/05/22 13:20:21;;;;;;;4.53;1.63;;;;;;;;;;5113296;27;20089;-65
2021/05/22 13:22:47;;;;;;;3.67;0.70;;;;;;;;;;5112936;28;20052;-66
2021/05/22 13:25:14;;;;;;;2.53;0.60;;;;;;;;;;5110318;28;20125;-67
2021/05/22 13:28:02;;;;;;;1.85;0.60;;;;;;;;;;5113342;28;20058;-66
2021/05/22 13:30:30;;;;;;;2.05;0.70;;;;;;;;;;5111194;28;20146;-66
2021/05/22 13:32:56;;;;;;;2.45;0.80;;;;;;;;;;5112742;28;20051;-65
2021/05/22 13:35:25;;;;;;;2.67;0.90;;;;;;;;;;5112265;28;20657;-66
2021/05/22 13:37:51;;;;;;;2.22;0.82;;;;;;;;;;5113577;28;20050;-65
2021/05/22 13:40:17;;;;;;;4.85;1.10;;;;;;;;;;5113557;28;20048;-65
2021/05/22 13:42:43;;;;;;;3.03;0.63;;;;;;;;;;5113922;28;20042;-65
2021/05/22 13:45:11;;;;;;;2.58;0.70;;;;;;;;;;5112975;28;20474;-65
2021/05/22 13:47:37;;;;;;;2.38;0.63;;;;;;;;;;5113496;27;20058;-64
2021/05/22 13:50:06;;;;;;;4.03;0.90;;;;;;;;;;5113406;28;20059;-65
2021/05/22 13:52:32;;;;;;;1.48;0.70;;;;;;;;;;5113789;28;20051;-65
2021/05/22 13:54:58;;;;;;;3.33;0.60;;;;;;;;;;5113341;28;20044;-65
2021/05/22 13:57:25;;;;;;;0.88;0.55;;;;;;;;;;5112971;28;20505;-65
2021/05/22 13:59:50;;;;;;;2.55;0.80;;;;;;;;;;5112872;28;20055;-65
2021/05/22 14:02:17;;;;;;;2.72;0.57;;;;;;;;;;5112693;28;20043;-66
2021/05/22 14:04:43;;;;;;;1.55;0.65;;;;;;;;;;5113058;28;20062;-65
2021/05/22 14:07:12;;;;;;;4.05;0.85;;;;;;;;;;5113482;28;20527;-65
2021/05/22 14:09:38;;;;;;;3.30;0.65;;;;;;;;;;5112989;28;20052;-65
2021/05/22 14:12:05;;;;;;;5.65;0.70;;;;;;;;;;5113187;28;20107;-65
2021/05/22 14:14:31;;;;;;;3.92;1.33;;;;;;;;;;5112929;28;20043;-67
2021/05/22 14:16:58;;;;;;;5.13;1.55;;;;;;;;;;5111600;28;20556;-66
2021/05/22 14:19:24;;;;;;;2.70;0.75;;;;;;;;;;5111964;28;20051;-65
2021/05/22 14:21:50;;;;;;;2.05;0.75;;;;;;;;;;5112268;28;20077;-66
2021/05/22 14:24:16;;;;;;;3.13;0.60;;;;;;;;;;5113016;28;20051;-66
2021/05/22 14:26:44;;;;;;;2.13;0.68;;;;;;;;;;5112664;28;20086;-66
2021/05/22 14:29:10;;;;;;;2.28;0.88;;;;;;;;;;5112841;28;20071;-66
2021/05/22 14:31:36;;;;;;;1.50;0.40;;;;;;;;;;5112551;28;20071;-66
2021/05/22 14:34:02;;;;;;;4.53;0.90;;;;;;;;;;5111794;28;20428;-66
2021/05/22 14:36:29;;;;;;;2.33;0.82;;;;;;;;;;5112222;28;20039;-67
2021/05/22 14:38:55;;;;;;;2.28;0.35;;;;;;;;;;5112037;28;20511;-66
2021/05/22 14:41:26;;;;;;;4.57;0.80;;;;;;;;;;5111835;28;20051;-66
2021/05/22 14:43:52;;;;;;;1.63;0.50;;;;;;;;;;5111478;28;20047;-66
2021/05/22 14:46:18;;;;;;;4.45;0.80;;;;;;;;;;5108449;28;20531;-68
2021/05/22 14:48:46;;;;;;;3.88;0.80;;;;;;;;;;5111120;28;20046;-66